sensor_id;sensor_type;location;lat;lon;timestamp;pressure;altitude;pressure_sealevel;temperature;humidity
12759;BME280;20944;47.048;15.390;2023-03-04T00:00:07;97770.16;;;3.56;100.00
12759;BME280;20944;47.048;15.390;2023-03-04T00:02:37;97770.13;;;3.42;100.00
12759;BME280;20944;47.048;15.390;2023-03-04T00:05:06;97726.94;;;3.28;100.00
12759;BME280;20944;47.048;15.390;2023-03-04T00:07:34;97759.78;;;3.64;100.00
12759;BME280;20944;47.048;15.390;2023-03-04T00:10:05;97774.47;;;3.53;100.00
12759;BME280;20944;47.048;15.390;2023-03-04T00:12:33;97766.66;;;3.36;100.00
12759;BME280;20944;47.048;15.390;2023-03-04T00:15:02;97761.47;;;3.28;100.00
12759;BME280;20944;47.048;15.390;2023-03-04T00:17:30;97763.19;;;3.31;100.00
12759;BME280;20944;47.048;15.390;2023-03-04T00:19:58;97761.44;;;3.23;100.00
12759;BME280;20944;47.048;15.390;2023-03-04T00:22:26;97752.75;;;3.12;100.00
12759;BME280;20944;47.048;15.390;2023-03-04T00:24:54;97772.63;;;3.16;100.00
12759;BME280;20944;47.048;15.390;2023-03-04T00:27:24;97732.91;;;3.04;100.00
12759;BME280;20944;47.048;15.390;2023-03-04T00:29:52;97781.22;;;3.14;100.00
12759;BME280;20944;47.048;15.390;2023-03-04T00:32:20;97772.66;;;3.25;100.00
12759;BME280;20944;47.048;15.390;2023-03-04T00:34:48;97755.34;;;3.11;100.00
12759;BME280;20944;47.048;15.390;2023-03-04T00:37:16;97770.91;;;3.20;100.00
12759;BME280;20944;47.048;15.390;2023-03-04T00:39:45;97772.63;;;3.16;100.00
12759;BME280;20944;47.048;15.390;2023-03-04T00:42:13;97766.53;;;3.04;100.00
12759;BME280;20944;47.048;15.390;2023-03-04T00:44:42;97770.84;;;3.03;100.00
12759;BME280;20944;47.048;15.390;2023-03-04T00:47:10;97744.91;;;2.85;100.00
12759;BME280;20944;47.048;15.390;2023-03-04T00:49:38;97742.25;;;2.76;100.00
12759;BME280;20944;47.048;15.390;2023-03-04T00:52:07;97771.59;;;2.82;100.00
12759;BME280;20944;47.048;15.390;2023-03-04T00:54:36;97771.63;;;2.87;100.00
12759;BME280;20944;47.048;15.390;2023-03-04T00:57:04;97778.53;;;2.86;100.00
12759;BME280;20944;47.048;15.390;2023-03-04T00:59:33;97704.25;;;2.58;100.00
12759;BME280;20944;47.048;15.390;2023-03-04T01:02:03;97768.19;;;2.86;100.00
12759;BME280;20944;47.048;15.390;2023-03-04T01:04:31;97754.34;;;2.77;100.00
12759;BME280;20944;47.048;15.390;2023-03-04T01:06:59;97753.50;;;2.82;100.00
12759;BME280;20944;47.048;15.390;2023-03-04T01:09:27;97597.91;;;1.89;100.00
12759;BME280;20944;47.048;15.390;2023-03-04T01:11:55;97728.44;;;2.64;100.00
12759;BME280;20944;47.048;15.390;2023-03-04T01:14:24;97727.53;;;2.59;100.00
12759;BME280;20944;47.048;15.390;2023-03-04T01:16:52;97742.25;;;2.76;100.00
12759;BME280;20944;47.048;15.390;2023-03-04T01:19:22;97699.88;;;2.49;100.00
12759;BME280;20944;47.048;15.390;2023-03-04T01:21:50;97730.09;;;2.56;100.00
12759;BME280;20944;47.048;15.390;2023-03-04T01:24:18;97730.06;;;2.50;100.00
12759;BME280;20944;47.048;15.390;2023-03-04T01:26:46;97728.41;;;2.60;100.00
12759;BME280;20944;47.048;15.390;2023-03-04T01:29:14;97722.34;;;2.59;100.00
12759;BME280;20944;47.048;15.390;2023-03-04T01:31:43;97730.16;;;2.67;100.00
12759;BME280;20944;47.048;15.390;2023-03-04T01:34:11;97731.81;;;2.57;100.00
12759;BME280;20944;47.048;15.390;2023-03-04T01:36:40;97735.25;;;2.53;100.00
12759;BME280;20944;47.048;15.390;2023-03-04T01:39:08;97718.88;;;2.57;100.00
12759;BME280;20944;47.048;15.390;2023-03-04T01:41:37;97731.00;;;2.64;100.00
12759;BME280;20944;47.048;15.390;2023-03-04T01:44:05;97596.97;;;1.78;100.00
12759;BME280;20944;47.048;15.390;2023-03-04T01:46:33;97728.41;;;2.63;100.00
12759;BME280;20944;47.048;15.390;2023-03-04T01:49:02;97645.28;;;1.94;100.00
12759;BME280;20944;47.048;15.390;2023-03-04T01:51:30;97723.03;;;2.31;100.00
12759;BME280;20944;47.048;15.390;2023-03-04T01:54:00;97722.16;;;2.24;100.00
12759;BME280;20944;47.048;15.390;2023-03-04T01:56:29;97714.53;;;2.47;100.00
12759;BME280;20944;47.048;15.390;2023-03-04T01:59:12;97713.59;;;2.37;100.00
12759;BME280;20944;47.048;15.390;2023-03-04T02:01:59;97652.28;;;2.10;100.00
12759;BME280;20944;47.048;15.390;2023-03-04T02:04:29;97542.47;;;1.33;100.00
12759;BME280;20944;47.048;15.390;2023-03-04T02:06:58;97632.28;;;1.80;100.00
12759;BME280;20944;47.048;15.390;2023-03-04T02:09:30;97595.97;;;1.56;100.00
12759;BME280;20944;47.048;15.390;2023-03-04T02:11:59;97705.84;;;2.36;100.00
12759;BME280;20944;47.048;15.390;2023-03-04T02:14:28;97699.81;;;2.38;100.00
12759;BME280;20944;47.048;15.390;2023-03-04T02:16:56;97703.25;;;2.37;100.00
12759;BME280;20944;47.048;15.390;2023-03-04T02:19:34;97695.44;;;2.25;100.00
12759;BME280;20944;47.048;15.390;2023-03-04T02:22:06;97705.78;;;2.24;100.00
12759;BME280;20944;47.048;15.390;2023-03-04T02:24:38;97679.97;;;2.27;100.00
12759;BME280;20944;47.048;15.390;2023-03-04T02:27:09;97688.69;;;2.47;100.00
12759;BME280;20944;47.048;15.390;2023-03-04T02:29:37;97682.66;;;2.48;100.00
12759;BME280;20944;47.048;15.390;2023-03-04T02:32:09;97680.00;;;2.36;100.00
12759;BME280;20944;47.048;15.390;2023-03-04T02:34:43;97681.66;;;2.22;100.00
12759;BME280;20944;47.048;15.390;2023-03-04T02:37:12;97659.97;;;1.95;100.00
12759;BME280;20944;47.048;15.390;2023-03-04T02:39:42;97669.47;;;2.07;100.00
12759;BME280;20944;47.048;15.390;2023-03-04T02:42:12;97672.91;;;2.01;100.00
12759;BME280;20944;47.048;15.390;2023-03-04T02:44:42;97647.00;;;1.89;100.00
12759;BME280;20944;47.048;15.390;2023-03-04T02:47:13;97634.03;;;1.83;100.00
12759;BME280;20944;47.048;15.390;2023-03-04T02:49:43;97673.78;;;2.02;100.00
12759;BME280;20944;47.048;15.390;2023-03-04T02:52:13;97635.81;;;1.92;100.00
12759;BME280;20944;47.048;15.390;2023-03-04T02:54:44;97667.78;;;2.13;100.00
12759;BME280;20944;47.048;15.390;2023-03-04T02:57:14;97660.94;;;2.15;100.00
12759;BME280;20944;47.048;15.390;2023-03-04T02:59:42;97658.31;;;2.09;100.00
12759;BME280;20944;47.048;15.390;2023-03-04T03:02:10;97658.25;;;2.00;100.00
12759;BME280;20944;47.048;15.390;2023-03-04T03:04:39;97665.03;;;1.86;100.00
12759;BME280;20944;47.048;15.390;2023-03-04T03:07:08;97663.28;;;1.79;100.00
12759;BME280;20944;47.048;15.390;2023-03-04T03:09:36;97658.91;;;1.70;100.00
12759;BME280;20944;47.048;15.390;2023-03-04T03:12:04;97648.59;;;1.73;100.00
12759;BME280;20944;47.048;15.390;2023-03-04T03:14:35;97626.25;;;1.77;100.00
12759;BME280;20944;47.048;15.390;2023-03-04T03:17:03;97627.88;;;1.67;100.00
12759;BME280;20944;47.048;15.390;2023-03-04T03:19:31;97652.91;;;1.73;100.00
12759;BME280;20944;47.048;15.390;2023-03-04T03:22:00;97651.13;;;1.67;100.00
12759;BME280;20944;47.048;15.390;2023-03-04T03:24:28;97652.84;;;1.68;100.00
12759;BME280;20944;47.048;15.390;2023-03-04T03:26:56;97629.56;;;1.60;100.00
12759;BME280;20944;47.048;15.390;2023-03-04T03:29:27;97567.22;;;1.10;100.00
12759;BME280;20944;47.048;15.390;2023-03-04T03:31:56;97651.13;;;1.66;100.00
12759;BME280;20944;47.048;15.390;2023-03-04T03:34:24;97645.00;;;1.54;100.00
12759;BME280;20944;47.048;15.390;2023-03-04T03:36:53;97627.69;;;1.44;100.00
12759;BME280;20944;47.048;15.390;2023-03-04T03:39:21;97646.78;;;1.60;100.00
12759;BME280;20944;47.048;15.390;2023-03-04T03:41:49;97625.31;;;1.66;100.00
12759;BME280;20944;47.048;15.390;2023-03-04T03:44:17;97645.16;;;1.73;100.00
12759;BME280;20944;47.048;15.390;2023-03-04T03:46:45;97637.38;;;1.70;100.00
12759;BME280;20944;47.048;15.390;2023-03-04T03:49:15;97635.59;;;1.58;100.00
12759;BME280;20944;47.048;15.390;2023-03-04T03:51:43;97628.66;;;1.54;100.00
12759;BME280;20944;47.048;15.390;2023-03-04T03:54:11;97619.97;;;1.43;100.00
12759;BME280;20944;47.048;15.390;2023-03-04T03:56:42;97621.78;;;1.53;100.00
12759;BME280;20944;47.048;15.390;2023-03-04T03:59:10;97632.03;;;1.47;100.00
12759;BME280;20944;47.048;15.390;2023-03-04T04:01:38;97508.56;;;0.86;100.00
12759;BME280;20944;47.048;15.390;2023-03-04T04:04:07;97504.19;;;0.79;100.00
12759;BME280;20944;47.048;15.390;2023-03-04T04:06:36;97625.97;;;1.43;100.00
12759;BME280;20944;47.048;15.390;2023-03-04T04:09:04;97625.13;;;1.41;100.00
12759;BME280;20944;47.048;15.390;2023-03-04T04:11:33;97631.94;;;1.34;100.00
12759;BME280;20944;47.048;15.390;2023-03-04T04:14:01;97616.31;;;1.19;100.00
12759;BME280;20944;47.048;15.390;2023-03-04T04:16:29;97636.94;;;1.19;100.00
12759;BME280;20944;47.048;15.390;2023-03-04T04:18:57;97637.84;;;1.21;100.00
12759;BME280;20944;47.048;15.390;2023-03-04T04:21:25;97609.28;;;1.01;100.00
12759;BME280;20944;47.048;15.390;2023-03-04T04:23:55;97631.78;;;1.15;100.00
12759;BME280;20944;47.048;15.390;2023-03-04T04:26:23;97631.03;;;1.28;100.00
12759;BME280;20944;47.048;15.390;2023-03-04T04:28:52;97632.81;;;1.37;100.00
12759;BME280;20944;47.048;15.390;2023-03-04T04:31:20;97635.28;;;1.23;100.00
12759;BME280;20944;47.048;15.390;2023-03-04T04:33:48;97617.97;;;1.10;100.00
12759;BME280;20944;47.048;15.390;2023-03-04T04:36:16;97626.56;;;1.08;100.00
12759;BME280;20944;47.048;15.390;2023-03-04T04:38:44;97628.16;;;0.96;100.00
12759;BME280;20944;47.048;15.390;2023-03-04T04:41:20;97628.19;;;1.00;100.00
12759;BME280;20944;47.048;15.390;2023-03-04T04:43:49;97644.28;;;0.78;100.00
12759;BME280;20944;47.048;15.390;2023-03-04T04:46:17;97628.84;;;0.81;100.00
12759;BME280;20944;47.048;15.390;2023-03-04T04:48:46;97626.31;;;0.83;100.00
12759;BME280;20944;47.048;15.390;2023-03-04T04:51:14;97541.44;;;0.20;100.00
12759;BME280;20944;47.048;15.390;2023-03-04T04:53:42;97626.25;;;0.81;100.00
12759;BME280;20944;47.048;15.390;2023-03-04T04:56:13;97601.25;;;0.74;100.00
12759;BME280;20944;47.048;15.390;2023-03-04T04:58:43;97606.53;;;0.83;100.00
12759;BME280;20944;47.048;15.390;2023-03-04T05:01:12;97614.28;;;0.88;100.00
12759;BME280;20944;47.048;15.390;2023-03-04T05:03:40;97592.69;;;0.75;100.00
12759;BME280;20944;47.048;15.390;2023-03-04T05:06:10;97546.06;;;0.53;100.00
12759;BME280;20944;47.048;15.390;2023-03-04T05:08:38;97610.09;;;0.97;100.00
12759;BME280;20944;47.048;15.390;2023-03-04T05:11:07;97617.00;;;0.98;100.00
12759;BME280;20944;47.048;15.390;2023-03-04T05:13:35;97612.81;;;1.10;100.00
12759;BME280;20944;47.048;15.390;2023-03-04T05:16:06;97497.78;;;0.37;100.00
12759;BME280;20944;47.048;15.390;2023-03-04T05:18:35;97575.59;;;0.83;100.00
12759;BME280;20944;47.048;15.390;2023-03-04T05:21:03;97622.09;;;0.92;100.00
12759;BME280;20944;47.048;15.390;2023-03-04T05:23:34;97618.72;;;0.98;100.00
12759;BME280;20944;47.048;15.390;2023-03-04T05:26:03;97529.69;;;0.48;100.00
12759;BME280;20944;47.048;15.390;2023-03-04T05:28:32;97619.56;;;0.98;100.00
12759;BME280;20944;47.048;15.390;2023-03-04T05:31:01;97577.06;;;0.58;100.00
12759;BME280;20944;47.048;15.390;2023-03-04T05:33:31;97599.41;;;0.58;100.00
12759;BME280;20944;47.048;15.390;2023-03-04T05:36:00;97580.06;;;0.22;100.00
12759;BME280;20944;47.048;15.390;2023-03-04T05:38:28;97630.19;;;0.45;100.00
12759;BME280;20944;47.048;15.390;2023-03-04T05:40:59;97587.00;;;0.26;100.00
12759;BME280;20944;47.048;15.390;2023-03-04T05:43:27;97634.34;;;0.37;100.00
12759;BME280;20944;47.048;15.390;2023-03-04T05:45:56;97608.81;;;0.56;100.00
12759;BME280;20944;47.048;15.390;2023-03-04T05:48:24;97590.75;;;0.52;100.00
12759;BME280;20944;47.048;15.390;2023-03-04T05:50:56;97615.75;;;0.63;100.00
12759;BME280;20944;47.048;15.390;2023-03-04T05:53:24;97620.00;;;0.58;100.00
12759;BME280;20944;47.048;15.390;2023-03-04T05:55:53;97612.38;;;0.68;100.00
12759;BME280;20944;47.048;15.390;2023-03-04T05:58:21;97539.81;;;0.30;100.00
12759;BME280;20944;47.048;15.390;2023-03-04T06:00:49;97444.72;;;-0.29;100.00
12759;BME280;20944;47.048;15.390;2023-03-04T06:03:19;97500.00;;;0.02;100.00
12759;BME280;20944;47.048;15.390;2023-03-04T06:05:48;97615.13;;;0.85;100.00
12759;BME280;20944;47.048;15.390;2023-03-04T06:08:17;97622.94;;;0.90;100.00
12759;BME280;20944;47.048;15.390;2023-03-04T06:10:46;97620.44;;;0.99;100.00
12759;BME280;20944;47.048;15.390;2023-03-04T06:13:14;97621.34;;;1.05;100.00
12759;BME280;20944;47.048;15.390;2023-03-04T06:15:42;97624.91;;;1.17;100.00
12759;BME280;20944;47.048;15.390;2023-03-04T06:18:10;97637.91;;;1.27;100.00
12759;BME280;20944;47.048;15.390;2023-03-04T06:20:38;97625.88;;;1.28;100.00
12759;BME280;20944;47.048;15.390;2023-03-04T06:23:06;97624.25;;;1.42;100.00
12759;BME280;20944;47.048;15.390;2023-03-04T06:25:36;97638.16;;;1.58;100.00
12759;BME280;20944;47.048;15.390;2023-03-04T06:28:04;97627.03;;;1.67;100.00
12759;BME280;20944;47.048;15.390;2023-03-04T06:30:32;97625.34;;;1.72;100.00
12759;BME280;20944;47.048;15.390;2023-03-04T06:33:01;97622.81;;;1.81;100.00
12759;BME280;20944;47.048;15.390;2023-03-04T06:35:29;97637.53;;;1.91;100.00
12759;BME280;20944;47.048;15.390;2023-03-04T06:37:57;97636.75;;;2.07;100.00
12759;BME280;20944;47.048;15.390;2023-03-04T06:40:25;97637.69;;;2.14;100.00
12759;BME280;20944;47.048;15.390;2023-03-04T06:42:55;97623.91;;;2.23;100.00
12759;BME280;20944;47.048;15.390;2023-03-04T06:45:23;97636.06;;;2.45;100.00
12759;BME280;20944;47.048;15.390;2023-03-04T06:47:51;97634.41;;;2.56;100.00
12759;BME280;20944;47.048;15.390;2023-03-04T06:50:19;97598.19;;;2.49;100.00
12759;BME280;20944;47.048;15.390;2023-03-04T06:52:47;97643.97;;;2.79;100.00
12759;BME280;20944;47.048;15.390;2023-03-04T06:55:16;97643.13;;;2.84;100.00
12759;BME280;20944;47.048;15.390;2023-03-04T06:57:44;97614.63;;;2.67;100.00
12759;BME280;20944;47.048;15.390;2023-03-04T07:00:16;97636.22;;;2.79;100.00
12759;BME280;20944;47.048;15.390;2023-03-04T07:02:45;97605.13;;;2.65;100.00
12759;BME280;20944;47.048;15.390;2023-03-04T07:05:13;97633.63;;;2.80;100.00
12759;BME280;20944;47.048;15.390;2023-03-04T07:07:41;97531.75;;;2.31;100.00
12759;BME280;20944;47.048;15.390;2023-03-04T07:10:10;97631.09;;;2.95;100.00
12759;BME280;20944;47.048;15.390;2023-03-04T07:12:38;97629.38;;;3.04;100.00
12759;BME280;20944;47.048;15.390;2023-03-04T07:15:07;97600.06;;;3.17;100.00
12759;BME280;20944;47.048;15.390;2023-03-04T07:17:37;97622.50;;;3.55;100.00
12759;BME280;20944;47.048;15.390;2023-03-04T07:20:06;97632.00;;;3.65;100.00
12759;BME280;20944;47.048;15.390;2023-03-04T07:22:34;97617.28;;;3.81;100.00
12759;BME280;20944;47.048;15.390;2023-03-04T07:25:03;97611.25;;;3.75;100.00
12759;BME280;20944;47.048;15.390;2023-03-04T07:27:31;97619.91;;;3.90;100.00
12759;BME280;20944;47.048;15.390;2023-03-04T07:29:59;97624.19;;;3.97;100.00
12759;BME280;20944;47.048;15.390;2023-03-04T07:32:27;97611.22;;;4.03;100.00
12759;BME280;20944;47.048;15.390;2023-03-04T07:34:57;97626.66;;;4.33;100.00
12759;BME280;20944;47.048;15.390;2023-03-04T07:37:25;97623.16;;;4.56;100.00
12759;BME280;20944;47.048;15.390;2023-03-04T07:39:53;97617.00;;;4.75;100.00
12759;BME280;20944;47.048;15.390;2023-03-04T07:42:21;97617.91;;;4.64;99.88
12759;BME280;20944;47.048;15.390;2023-03-04T07:44:49;97622.25;;;4.62;100.00
12759;BME280;20944;47.048;15.390;2023-03-04T07:47:18;97597.19;;;4.57;100.00
12759;BME280;20944;47.048;15.390;2023-03-04T07:49:47;97622.09;;;4.92;99.22
12759;BME280;20944;47.048;15.390;2023-03-04T07:52:16;97603.09;;;4.87;97.34
12759;BME280;20944;47.048;15.390;2023-03-04T07:54:44;97602.19;;;4.90;97.77
12759;BME280;20944;47.048;15.390;2023-03-04T07:57:13;97487.56;;;4.22;96.01
12759;BME280;20944;47.048;15.390;2023-03-04T07:59:42;97612.56;;;4.97;98.91
12759;BME280;20944;47.048;15.390;2023-03-04T08:02:10;97620.34;;;4.97;96.85
12759;BME280;20944;47.048;15.390;2023-03-04T08:04:38;97607.34;;;5.03;98.18
12759;BME280;20944;47.048;15.390;2023-03-04T08:07:06;97547.03;;;4.60;96.95
12759;BME280;20944;47.048;15.390;2023-03-04T08:09:36;97608.09;;;5.14;95.62
12759;BME280;20944;47.048;15.390;2023-03-04T08:12:04;97602.97;;;5.10;94.60
12759;BME280;20944;47.048;15.390;2023-03-04T08:14:32;97599.44;;;5.19;96.43
12759;BME280;20944;47.048;15.390;2023-03-04T08:17:01;97600.25;;;5.25;95.42
12759;BME280;20944;47.048;15.390;2023-03-04T08:19:29;97601.88;;;5.38;94.56
12759;BME280;20944;47.048;15.390;2023-03-04T08:21:57;97597.47;;;5.50;93.86
12759;BME280;20944;47.048;15.390;2023-03-04T08:24:25;97593.03;;;5.61;94.17
12759;BME280;20944;47.048;15.390;2023-03-04T08:26:55;97553.25;;;5.53;93.76
12759;BME280;20944;47.048;15.390;2023-03-04T08:29:24;97575.47;;;5.86;92.18
12759;BME280;20944;47.048;15.390;2023-03-04T08:31:53;97567.44;;;6.09;90.58
12759;BME280;20944;47.048;15.390;2023-03-04T08:34:24;97584.44;;;6.42;90.51
12759;BME280;20944;47.048;15.390;2023-03-04T08:36:53;97583.53;;;6.43;87.55
12759;BME280;20944;47.048;15.390;2023-03-04T08:39:21;97585.13;;;6.55;87.86
12759;BME280;20944;47.048;15.390;2023-03-04T08:41:49;97576.38;;;6.59;88.17
12759;BME280;20944;47.048;15.390;2023-03-04T08:44:19;97580.56;;;6.70;87.66
12759;BME280;20944;47.048;15.390;2023-03-04T08:46:47;97576.81;;;6.93;87.73
12759;BME280;20944;47.048;15.390;2023-03-04T08:49:15;97463.91;;;6.37;87.16
12759;BME280;20944;47.048;15.390;2023-03-04T08:51:44;97563.56;;;7.08;85.91
12759;BME280;20944;47.048;15.390;2023-03-04T08:54:12;97504.94;;;6.81;85.64
12759;BME280;20944;47.048;15.390;2023-03-04T08:56:40;97556.38;;;7.24;86.23
12759;BME280;20944;47.048;15.390;2023-03-04T08:59:08;97559.66;;;7.35;86.06
12759;BME280;20944;47.048;15.390;2023-03-04T09:01:38;97540.53;;;7.36;85.39
12759;BME280;20944;47.048;15.390;2023-03-04T09:04:06;97535.03;;;7.54;84.86
12759;BME280;20944;47.048;15.390;2023-03-04T09:06:34;97497.72;;;7.48;84.52
12759;BME280;20944;47.048;15.390;2023-03-04T09:09:03;97526.66;;;7.83;84.47
12759;BME280;20944;47.048;15.390;2023-03-04T09:11:31;97545.25;;;8.11;82.58
12759;BME280;20944;47.048;15.390;2023-03-04T09:13:59;97486.50;;;7.91;82.50
12759;BME280;20944;47.048;15.390;2023-03-04T09:16:27;97542.22;;;8.36;81.54
12759;BME280;20944;47.048;15.390;2023-03-04T09:18:59;97544.47;;;8.51;79.94
12759;BME280;20944;47.048;15.390;2023-03-04T09:21:27;97541.78;;;8.56;79.77
12759;BME280;20944;47.048;15.390;2023-03-04T09:23:55;97525.88;;;8.67;80.13
12759;BME280;20944;47.048;15.390;2023-03-04T09:26:24;97529.97;;;8.78;79.28
12759;BME280;20944;47.048;15.390;2023-03-04T09:28:55;97531.50;;;8.88;79.53
12759;BME280;20944;47.048;15.390;2023-03-04T09:31:24;97530.41;;;8.97;79.36
12759;BME280;20944;47.048;15.390;2023-03-04T09:33:54;97503.28;;;9.03;78.35
12759;BME280;20944;47.048;15.390;2023-03-04T09:36:24;97518.56;;;9.19;77.77
12759;BME280;20944;47.048;15.390;2023-03-04T09:38:52;97514.78;;;9.31;77.21
12759;BME280;20944;47.048;15.390;2023-03-04T09:41:23;97504.34;;;9.31;75.88
12759;BME280;20944;47.048;15.390;2023-03-04T09:43:53;97487.53;;;9.40;75.77
12759;BME280;20944;47.048;15.390;2023-03-04T09:46:28;97509.59;;;9.64;75.16
12759;BME280;20944;47.048;15.390;2023-03-04T09:48:59;97509.19;;;9.79;74.39
12759;BME280;20944;47.048;15.390;2023-03-04T09:51:43;97488.31;;;9.78;75.28
12759;BME280;20944;47.048;15.390;2023-03-04T09:54:19;97502.53;;;10.00;74.62
12759;BME280;20944;47.048;15.390;2023-03-04T09:56:58;97502.03;;;10.17;72.98
12759;BME280;20944;47.048;15.390;2023-03-04T09:59:29;97486.63;;;10.39;73.04
12759;BME280;20944;47.048;15.390;2023-03-04T10:02:06;97478.25;;;10.56;72.23
12759;BME280;20944;47.048;15.390;2023-03-04T10:04:43;97454.75;;;10.52;71.44
12759;BME280;20944;47.048;15.390;2023-03-04T10:07:18;97432.53;;;10.66;67.55
12759;BME280;20944;47.048;15.390;2023-03-04T10:09:50;97469.81;;;11.02;66.49
12759;BME280;20944;47.048;15.390;2023-03-04T10:12:23;97465.03;;;11.15;65.87
12759;BME280;20944;47.048;15.390;2023-03-04T10:14:57;97418.75;;;11.14;64.61
12759;BME280;20944;47.048;15.390;2023-03-04T10:17:33;97409.63;;;11.25;56.28
12759;BME280;20944;47.048;15.390;2023-03-04T10:20:04;97381.19;;;11.13;53.41
12759;BME280;20944;47.048;15.390;2023-03-04T10:22:38;97382.63;;;11.22;55.45
12759;BME280;20944;47.048;15.390;2023-03-04T10:25:17;97411.69;;;11.41;54.00
12759;BME280;20944;47.048;15.390;2023-03-04T10:27:49;97431.84;;;11.65;53.45
12759;BME280;20944;47.048;15.390;2023-03-04T10:30:30;97371.78;;;11.31;52.22
12759;BME280;20944;47.048;15.390;2023-03-04T10:32:59;97432.19;;;11.79;54.50
12759;BME280;20944;47.048;15.390;2023-03-04T10:35:33;97426.75;;;11.85;50.12
12759;BME280;20944;47.048;15.390;2023-03-04T10:38:05;97422.13;;;11.92;52.92
12759;BME280;20944;47.048;15.390;2023-03-04T10:40:37;97418.66;;;11.92;51.71
12759;BME280;20944;47.048;15.390;2023-03-04T10:43:13;97414.53;;;11.84;51.53
12759;BME280;20944;47.048;15.390;2023-03-04T10:45:42;97411.75;;;11.89;51.12
12759;BME280;20944;47.048;15.390;2023-03-04T10:48:19;97424.59;;;11.97;51.04
12759;BME280;20944;47.048;15.390;2023-03-04T10:50:48;97409.88;;;11.93;50.09
12759;BME280;20944;47.048;15.390;2023-03-04T10:53:29;97378.66;;;11.85;51.21
12759;BME280;20944;47.048;15.390;2023-03-04T10:55:59;97408.50;;;12.06;50.84
12759;BME280;20944;47.048;15.390;2023-03-04T10:58:28;97398.81;;;12.08;52.12
12759;BME280;20944;47.048;15.390;2023-03-04T11:01:02;97393.34;;;12.12;49.97
12759;BME280;20944;47.048;15.390;2023-03-04T11:03:33;97396.81;;;12.14;52.84
12759;BME280;20944;47.048;15.390;2023-03-04T11:06:11;97381.09;;;12.13;51.33
12759;BME280;20944;47.048;15.390;2023-03-04T11:08:44;97386.25;;;12.38;51.10
12759;BME280;20944;47.048;15.390;2023-03-04T11:11:21;97388.47;;;12.49;52.77
12759;BME280;20944;47.048;15.390;2023-03-04T11:13:55;97383.66;;;12.60;52.67
12759;BME280;20944;47.048;15.390;2023-03-04T11:16:27;97377.84;;;12.74;52.14
12759;BME280;20944;47.048;15.390;2023-03-04T11:19:00;97382.53;;;12.87;51.92
12759;BME280;20944;47.048;15.390;2023-03-04T11:21:36;97372.41;;;12.99;50.96
12759;BME280;20944;47.048;15.390;2023-03-04T11:24:13;97368.84;;;13.01;48.00
12759;BME280;20944;47.048;15.390;2023-03-04T11:26:56;97371.50;;;13.00;49.84
12759;BME280;20944;47.048;15.390;2023-03-04T11:29:30;97331.97;;;12.81;49.87
12759;BME280;20944;47.048;15.390;2023-03-04T11:32:06;97359.75;;;13.08;53.32
12759;BME280;20944;47.048;15.390;2023-03-04T11:34:41;97308.84;;;12.89;54.49
12759;BME280;20944;47.048;15.390;2023-03-04T11:37:14;97317.06;;;13.02;50.93
12759;BME280;20944;47.048;15.390;2023-03-04T11:39:51;97350.78;;;13.34;50.21
12759;BME280;20944;47.048;15.390;2023-03-04T11:42:27;97334.06;;;13.35;50.16
12759;BME280;20944;47.048;15.390;2023-03-04T11:44:58;97318.38;;;13.32;49.83
12759;BME280;20944;47.048;15.390;2023-03-04T11:47:39;97341.72;;;13.60;49.12
12759;BME280;20944;47.048;15.390;2023-03-04T11:50:29;97328.66;;;13.59;47.78
12759;BME280;20944;47.048;15.390;2023-03-04T11:56:01;97330.72;;;13.71;48.84
12759;BME280;20944;47.048;15.390;2023-03-04T11:59:00;97321.09;;;13.89;49.96
12759;BME280;20944;47.048;15.390;2023-03-04T12:01:38;97184.75;;;13.20;48.97
12759;BME280;20944;47.048;15.390;2023-03-04T12:04:17;97327.09;;;14.11;47.35
12759;BME280;20944;47.048;15.390;2023-03-04T12:06:57;97318.72;;;14.22;47.35
12759;BME280;20944;47.048;15.390;2023-03-04T12:09:39;97311.91;;;14.35;47.62
12759;BME280;20944;47.048;15.390;2023-03-04T12:12:29;97310.44;;;14.48;46.54
12759;BME280;20944;47.048;15.390;2023-03-04T12:15:12;97290.09;;;14.50;44.80
12759;BME280;20944;47.048;15.390;2023-03-04T12:17:53;97228.56;;;14.32;46.40
12759;BME280;20944;47.048;15.390;2023-03-04T12:20:34;97306.91;;;14.84;44.94
12759;BME280;20944;47.048;15.390;2023-03-04T12:23:18;97302.53;;;14.83;43.22
12759;BME280;20944;47.048;15.390;2023-03-04T12:25:55;97290.84;;;14.71;42.66
12759;BME280;20944;47.048;15.390;2023-03-04T12:28:33;97286.19;;;14.59;44.97
12759;BME280;20944;47.048;15.390;2023-03-04T12:34:29;97278.28;;;14.59;44.30
12759;BME280;20944;47.048;15.390;2023-03-04T12:37:20;97270.59;;;14.72;43.06
12759;BME280;20944;47.048;15.390;2023-03-04T12:40:05;97272.13;;;14.76;43.93
12759;BME280;20944;47.048;15.390;2023-03-04T12:42:37;97252.81;;;14.75;43.25
12759;BME280;20944;47.048;15.390;2023-03-04T12:45:16;97210.06;;;14.69;43.22
12759;BME280;20944;47.048;15.390;2023-03-04T12:47:53;97262.88;;;15.19;44.18
12759;BME280;20944;47.048;15.390;2023-03-04T12:50:31;97255.88;;;15.51;43.13
12759;BME280;20944;47.048;15.390;2023-03-04T12:53:12;97252.38;;;15.84;41.52
12759;BME280;20944;47.048;15.390;2023-03-04T12:55:44;97234.66;;;16.02;41.80
12759;BME280;20944;47.048;15.390;2023-03-04T12:58:16;97191.28;;;15.74;40.07
12759;BME280;20944;47.048;15.390;2023-03-04T13:00:55;97242.16;;;15.94;41.52
12759;BME280;20944;47.048;15.390;2023-03-04T13:03:36;97193.31;;;15.53;41.39
12759;BME280;20944;47.048;15.390;2023-03-04T13:06:19;97236.28;;;15.88;39.65
12759;BME280;20944;47.048;15.390;2023-03-04T13:08:58;97236.63;;;15.98;40.35
12759;BME280;20944;47.048;15.390;2023-03-04T13:11:44;97246.94;;;16.18;40.06
12759;BME280;20944;47.048;15.390;2023-03-04T13:14:26;97231.66;;;16.08;39.30
12759;BME280;20944;47.048;15.390;2023-03-04T13:16:57;97167.50;;;15.90;40.79